createdAt,value
2022-11-30T00:00:32.643Z,101816.40
2022-11-30T00:03:02.706Z,101818.33
2022-11-30T00:05:31.816Z,101812.16
2022-11-30T00:08:02.356Z,101814.86
2022-11-30T00:10:32.273Z,101816.11
2022-11-30T00:13:01.322Z,101814.86
2022-11-30T00:15:31.071Z,101811.39
2022-11-30T00:17:59.961Z,101812.27
2022-11-30T00:20:31.656Z,101810.53
2022-11-30T00:23:00.461Z,101811.59
2022-11-30T00:25:29.853Z,101809.95
2022-11-30T00:28:01.277Z,101811.01
2022-11-30T00:30:31.514Z,101807.73
2022-11-30T00:33:00.550Z,101810.91
2022-11-30T00:35:31.310Z,101802.50
2022-11-30T00:38:04.605Z,101807.51
2022-11-30T00:40:33.539Z,101806.73
2022-11-30T00:43:03.038Z,101808.47
2022-11-30T00:45:32.310Z,101802.31
2022-11-30T00:48:01.177Z,101802.70
2022-11-30T00:50:30.640Z,101800.77
2022-11-30T00:52:59.783Z,101801.34
2022-11-30T00:55:30.523Z,101804.81
2022-11-30T00:58:01.154Z,101803.46
2022-11-30T01:00:31.681Z,101798.94
2022-11-30T01:03:00.882Z,101799.33
2022-11-30T01:05:30.528Z,101792.50
2022-11-30T01:08:03.985Z,101794.61
2022-11-30T01:10:35.055Z,101787.30
2022-11-30T01:13:04.807Z,101784.70
2022-11-30T01:15:39.986Z,101786.53
2022-11-30T01:18:09.261Z,101784.80
2022-11-30T01:20:42.346Z,101782.97
2022-11-30T01:23:13.354Z,101787.30
2022-11-30T01:25:42.283Z,101779.92
2022-11-30T01:28:11.371Z,101774.44
2022-11-30T01:30:40.861Z,101777.91
2022-11-30T01:33:10.344Z,101769.91
2022-11-30T01:35:39.670Z,101770.88
2022-11-30T01:38:09.592Z,101773.19
2022-11-30T01:40:38.986Z,101768.09
2022-11-30T01:43:12.653Z,101770.20
2022-11-30T01:45:41.746Z,101772.90
2022-11-30T01:48:10.822Z,101767.89
2022-11-30T01:50:39.834Z,101752.49
2022-11-30T01:53:10.904Z,101761.73
2022-11-30T01:55:44.561Z,101766.16
2022-11-30T01:58:22.039Z,101769.43
2022-11-30T02:00:52.350Z,101772.61
2022-11-30T02:03:46.013Z,101776.27
2022-11-30T02:06:15.113Z,101779.83
2022-11-30T02:08:44.167Z,101780.69
2022-11-30T02:11:14.092Z,101780.89
2022-11-30T02:13:58.452Z,101786.75
2022-11-30T02:16:41.923Z,101789.36
2022-11-30T02:19:54.851Z,101790.31
2022-11-30T02:23:03.367Z,101788.97
2022-11-30T02:26:07.069Z,101788.11
2022-11-30T02:28:53.375Z,101793.98
2022-11-30T02:31:27.736Z,101785.89
2022-11-30T02:33:57.401Z,101781.17
2022-11-30T02:36:27.477Z,101774.44
2022-11-30T02:38:57.528Z,101774.25
2022-11-30T02:41:26.703Z,101780.69
2022-11-30T02:43:55.309Z,101787.69
2022-11-30T02:46:29.494Z,101792.30
2022-11-30T02:49:16.158Z,101795.77
2022-11-30T02:51:45.735Z,101786.44
2022-11-30T02:54:15.239Z,101785.09
2022-11-30T02:56:45.088Z,101776.63
2022-11-30T02:59:14.689Z,101776.33
2022-11-30T03:01:45.643Z,101785.47
2022-11-30T03:04:14.752Z,101791.24
2022-11-30T03:06:44.465Z,101783.45
2022-11-30T03:09:14.255Z,101792.30
2022-11-30T03:11:44.072Z,101789.99
2022-11-30T03:14:15.578Z,101790.77
2022-11-30T03:16:45.429Z,101786.72
2022-11-30T03:19:15.657Z,101784.12
2022-11-30T03:21:45.155Z,101778.83
2022-11-30T03:24:15.088Z,101767.67
2022-11-30T03:26:44.076Z,101770.36
2022-11-30T03:29:14.419Z,101778.92
2022-11-30T03:31:43.624Z,101770.17
2022-11-30T03:34:12.837Z,101783.34
2022-11-30T03:36:42.452Z,101788.73
2022-11-30T03:39:11.522Z,101780.75
2022-11-30T03:41:41.465Z,101762.37
2022-11-30T03:44:10.397Z,101766.80
2022-11-30T03:46:40.093Z,101778.53
2022-11-30T03:49:11.242Z,101773.24
2022-11-30T03:51:41.285Z,101783.05
2022-11-30T03:54:11.635Z,101782.67
2022-11-30T03:56:41.198Z,101775.64
2022-11-30T03:59:10.314Z,101776.13
2022-11-30T04:01:43.119Z,101767.56
2022-11-30T04:04:12.857Z,101760.35
2022-11-30T04:06:42.610Z,101768.44
2022-11-30T04:09:12.517Z,101779.20
2022-11-30T04:11:41.450Z,101765.64
2022-11-30T04:14:10.425Z,101768.81
2022-11-30T04:16:39.593Z,101766.31
2022-11-30T04:19:10.998Z,101772.17
2022-11-30T04:21:39.984Z,101776.50
2022-11-30T04:24:12.135Z,101779.39
2022-11-30T04:26:45.946Z,101776.78
2022-11-30T04:29:14.843Z,101783.91
2022-11-30T04:31:43.694Z,101783.04
2022-11-30T04:34:13.244Z,101776.50
2022-11-30T04:36:42.408Z,101783.13
2022-11-30T04:39:11.229Z,101777.36
2022-11-30T04:41:43.643Z,101781.97
2022-11-30T04:44:12.981Z,101787.06
2022-11-30T04:46:42.410Z,101780.91
2022-11-30T04:49:11.866Z,101791.67
2022-11-30T04:51:40.456Z,101777.55
2022-11-30T04:54:10.447Z,101789.28
2022-11-30T04:56:40.108Z,101798.70
2022-11-30T04:59:09.787Z,101794.76
2022-11-30T05:01:39.726Z,101796.29
2022-11-30T05:04:08.695Z,101805.80
2022-11-30T05:06:38.606Z,101816.58
2022-11-30T05:09:07.268Z,101800.52
2022-11-30T05:11:36.581Z,101811.38
2022-11-30T05:14:05.953Z,101812.33
2022-11-30T05:16:34.987Z,101819.73
2022-11-30T05:19:04.532Z,101821.64
2022-11-30T05:21:33.009Z,101823.17
2022-11-30T05:24:04.287Z,101824.52
2022-11-30T05:26:35.349Z,101826.16
2022-11-30T05:29:05.236Z,101826.25
2022-11-30T05:31:38.043Z,101825.48
2022-11-30T05:34:07.732Z,101826.34
2022-11-30T05:36:36.955Z,101822.78
2022-11-30T05:39:06.459Z,101836.72
2022-11-30T05:41:35.736Z,101832.78
2022-11-30T05:44:06.284Z,101831.04
2022-11-30T05:46:40.676Z,101831.43
2022-11-30T05:49:07.128Z,101830.70
2022-11-30T05:51:36.402Z,101834.06
2022-11-30T05:54:05.790Z,101828.11
2022-11-30T05:56:34.407Z,101824.46
2022-11-30T05:59:03.760Z,101832.92
2022-11-30T06:01:33.417Z,101835.08
2022-11-30T06:04:08.977Z,101834.27
2022-11-30T06:06:40.398Z,101834.59
2022-11-30T06:09:11.776Z,101840.13
2022-11-30T06:11:40.648Z,101836.28
2022-11-30T06:14:09.565Z,101832.23
2022-11-30T06:16:42.437Z,101823.11
2022-11-30T06:19:12.021Z,101833.73
2022-11-30T06:21:41.163Z,101826.83
2022-11-30T06:24:11.078Z,101821.25
2022-11-30T06:26:40.022Z,101817.03
2022-11-30T06:29:10.878Z,101825.20
2022-11-30T06:31:40.956Z,101829.72
2022-11-30T06:34:10.835Z,101836.72
2022-11-30T06:36:40.985Z,101838.31
2022-11-30T06:39:11.854Z,101841.18
2022-11-30T06:41:40.589Z,101844.44
2022-11-30T06:44:10.902Z,101849.82
2022-11-30T06:46:41.174Z,101865.49
2022-11-30T06:49:11.386Z,101869.23
2022-11-30T06:51:40.587Z,101865.85
2022-11-30T06:54:09.951Z,101869.58
2022-11-30T06:56:39.039Z,101872.28
2022-11-30T06:59:09.444Z,101868.54
2022-11-30T07:01:39.697Z,101878.26
2022-11-30T07:04:11.165Z,101881.82
2022-11-30T07:06:41.551Z,101874.22
2022-11-30T07:09:13.208Z,101877.48
2022-11-30T07:11:42.961Z,101880.56
2022-11-30T12:18:28.156Z,101850.43
2022-11-30T12:27:43.069Z,101854.89
2022-11-30T12:30:30.353Z,101840.13
2022-11-30T12:33:31.512Z,101845.55
2022-11-30T12:36:21.538Z,101841.15
2022-11-30T12:38:59.049Z,101849.34
2022-11-30T12:41:50.555Z,101846.47
2022-11-30T12:44:45.934Z,101851.23
2022-11-30T12:47:33.064Z,101848.36
2022-11-30T12:50:27.444Z,101854.79
2022-11-30T12:53:24.658Z,101844.73
2022-11-30T12:56:42.904Z,101849.07
2022-11-30T12:59:20.981Z,101848.92
2022-11-30T13:02:35.019Z,101850.56
2022-11-30T13:05:08.535Z,101841.06
2022-11-30T13:07:55.920Z,101847.78
2022-11-30T13:10:44.536Z,101847.40
2022-11-30T13:13:18.853Z,101845.48
2022-11-30T13:15:48.980Z,101844.91
2022-11-30T13:18:21.001Z,101852.42
2022-11-30T13:21:07.747Z,101841.56
2022-11-30T13:23:41.487Z,101839.53
2022-11-30T13:26:49.504Z,101847.61
2022-11-30T13:29:43.743Z,101840.39
2022-11-30T13:32:41.162Z,101843.00
2022-11-30T13:34:47.713Z,101841.65
2022-11-30T13:37:27.552Z,101845.78
2022-11-30T13:39:57.294Z,101836.27
2022-11-30T13:42:51.375Z,101839.34
2022-11-30T13:45:21.318Z,101829.53
2022-11-30T13:47:59.014Z,101836.66
2022-11-30T13:50:40.578Z,101832.62
2022-11-30T13:53:27.823Z,101828.19
2022-11-30T13:56:17.946Z,101830.50
2022-11-30T13:59:27.268Z,101822.42
2022-11-30T14:02:38.437Z,101823.27
2022-11-30T14:05:23.826Z,101819.47
2022-11-30T14:08:10.229Z,101821.08
2022-11-30T14:10:52.456Z,101818.39
2022-11-30T14:13:30.709Z,101828.29
2022-11-30T14:16:03.056Z,101827.24
2022-11-30T14:18:41.413Z,101829.94
2022-11-30T14:21:32.426Z,101829.84
2022-11-30T14:24:18.545Z,101832.92
2022-11-30T14:26:49.774Z,101836.57
2022-11-30T14:29:29.785Z,101840.52
2022-11-30T14:32:28.268Z,101835.61
2022-11-30T14:35:13.341Z,101838.31
2022-11-30T14:37:52.614Z,101839.50
2022-11-30T14:40:25.580Z,101842.28
2022-11-30T14:43:00.491Z,101835.23
2022-11-30T14:45:33.188Z,101841.66
2022-11-30T14:48:14.038Z,101844.05
2022-11-30T14:50:52.593Z,101832.72
2022-11-30T14:53:38.176Z,101835.14
2022-11-30T14:56:31.196Z,101834.52
2022-11-30T14:59:37.588Z,101843.75
2022-11-30T15:02:09.309Z,101846.33
2022-11-30T15:04:40.302Z,101836.57
2022-11-30T15:07:14.763Z,101843.21
2022-11-30T15:09:46.614Z,101839.11
2022-11-30T15:12:21.109Z,101843.69
2022-11-30T15:15:17.462Z,101843.78
2022-11-30T15:17:53.787Z,101848.87
2022-11-30T15:20:39.352Z,101857.42
2022-11-30T15:23:14.747Z,101856.46
2022-11-30T15:26:03.717Z,101861.27
2022-11-30T15:28:37.714Z,101855.33
2022-11-30T15:31:10.185Z,101861.13
2022-11-30T15:33:43.010Z,101865.16
2022-11-30T15:36:23.428Z,101860.89
2022-11-30T15:38:51.466Z,101857.80
2022-11-30T15:41:24.216Z,101863.48
2022-11-30T15:43:57.597Z,101862.14
2022-11-30T15:46:34.765Z,101862.71
2022-11-30T15:49:25.256Z,101869.23
2022-11-30T15:52:15.268Z,101869.70
2022-11-30T15:54:55.579Z,101868.63
2022-11-30T15:57:28.590Z,101868.16
2022-11-30T16:00:19.568Z,101863.34
2022-11-30T16:02:50.562Z,101865.16
2022-11-30T16:05:26.731Z,101866.89
2022-11-30T16:07:59.757Z,101867.94
2022-11-30T16:10:40.028Z,101867.64
2022-11-30T16:13:15.566Z,101863.69
2022-11-30T16:15:47.266Z,101863.69
2022-11-30T16:18:25.588Z,101861.87
2022-11-30T22:27:52.045Z,101906.14
2022-11-30T22:30:22.440Z,101903.06
2022-11-30T22:32:52.998Z,101907.09
2022-11-30T22:35:22.934Z,101902.02
2022-11-30T22:37:54.802Z,101890.20
2022-11-30T22:40:24.314Z,101900.10
2022-11-30T22:42:53.758Z,101895.10
2022-11-30T22:45:23.914Z,101891.45
2022-11-30T22:47:54.485Z,101890.67
2022-11-30T22:50:24.091Z,101891.55
2022-11-30T22:53:02.906Z,101882.98
2022-11-30T22:55:27.350Z,101885.00
2022-11-30T22:57:57.178Z,101885.00
2022-11-30T23:00:27.124Z,101889.03
2022-11-30T23:02:56.880Z,101889.72
2022-11-30T23:05:29.596Z,101884.91
2022-11-30T23:07:59.043Z,101879.52
2022-11-30T23:10:28.490Z,101881.25
2022-11-30T23:13:00.196Z,101882.60
2022-11-30T23:15:30.468Z,101885.77
2022-11-30T23:18:00.504Z,101885.86
2022-11-30T23:20:30.427Z,101885.09
2022-11-30T23:23:00.731Z,101882.39
2022-11-30T23:25:30.653Z,101888.34
2022-11-30T23:28:00.517Z,101890.02
2022-11-30T23:30:30.960Z,101892.49
2022-11-30T23:33:01.228Z,101885.38
2022-11-30T23:35:30.722Z,101887.59
2022-11-30T23:38:00.237Z,101884.42
2022-11-30T23:40:29.945Z,101888.06
2022-11-30T23:42:59.907Z,101887.77
2022-11-30T23:45:29.501Z,101892.45
2022-11-30T23:47:59.002Z,101888.13
2022-11-30T23:50:28.249Z,101891.55
2022-11-30T23:52:58.905Z,101892.98
